createdAt,value
2022-08-28T00:02:01.455Z,53.74
2022-08-28T00:04:03.911Z,53.62
2022-08-28T00:06:06.285Z,53.59
2022-08-28T00:08:10.032Z,53.56
2022-08-28T00:10:14.881Z,53.77
2022-08-28T00:12:17.880Z,53.83
2022-08-28T00:14:21.502Z,53.86
2022-08-28T00:16:23.731Z,53.89
2022-08-28T00:18:30.490Z,54.13
2022-08-28T00:20:33.616Z,53.88
2022-08-28T00:22:36.509Z,54.06
2022-08-28T00:24:38.693Z,53.97
2022-08-28T00:26:59.120Z,54.00
2022-08-28T00:29:01.527Z,53.98
2022-08-28T00:31:05.390Z,54.16
2022-08-28T00:33:16.028Z,54.08
2022-08-28T00:35:20.917Z,54.24
2022-08-28T00:37:24.632Z,54.32
2022-08-28T00:39:26.811Z,54.69
2022-08-28T00:41:31.539Z,54.64
2022-08-28T00:43:42.665Z,54.80
2022-08-28T00:45:44.705Z,54.64
2022-08-28T00:47:47.496Z,54.63
2022-08-28T00:49:53.419Z,54.75
2022-08-28T00:52:08.276Z,54.64
2022-08-28T00:54:13.604Z,55.06
2022-08-28T00:56:18.775Z,55.32
2022-08-28T00:58:20.948Z,55.27
2022-08-28T01:00:35.217Z,55.10
2022-08-28T01:02:37.452Z,55.35
2022-08-28T01:04:39.874Z,55.07
2022-08-28T01:06:41.948Z,55.34
2022-08-28T01:08:50.409Z,55.05
2022-08-28T01:10:55.461Z,55.12
2022-08-28T01:12:58.816Z,55.18
2022-08-28T01:15:15.700Z,55.13
2022-08-28T01:17:21.272Z,55.22
2022-08-28T01:19:38.392Z,54.96
2022-08-28T01:21:54.960Z,55.27
2022-08-28T01:24:04.897Z,55.16
2022-08-28T01:26:11.876Z,55.65
2022-08-28T01:28:23.474Z,55.40
2022-08-28T01:30:25.342Z,55.50
2022-08-28T01:32:38.423Z,55.37
2022-08-28T01:35:15.666Z,55.56
2022-08-28T01:37:17.404Z,55.52
2022-08-28T01:39:28.487Z,55.51
2022-08-28T01:41:30.946Z,55.73
2022-08-28T01:43:33.014Z,55.78
2022-08-28T01:45:37.777Z,55.81
2022-08-28T01:47:41.130Z,55.94
2022-08-28T01:49:43.916Z,55.68
2022-08-28T01:51:46.689Z,55.85
2022-08-28T01:53:50.555Z,55.79
2022-08-28T01:55:54.408Z,55.96
2022-08-28T01:57:56.615Z,55.98
2022-08-28T01:59:58.730Z,56.29
2022-08-28T02:02:01.555Z,56.13
2022-08-28T02:04:04.867Z,56.13
2022-08-28T02:06:07.464Z,56.31
2022-08-28T02:08:10.326Z,56.44
2022-08-28T02:10:12.701Z,56.35
2022-08-28T02:12:15.034Z,56.32
2022-08-28T02:14:17.090Z,56.35
2022-08-28T02:16:19.737Z,56.39
2022-08-28T02:18:22.027Z,56.34
2022-08-28T02:20:25.111Z,56.47
2022-08-28T02:22:27.874Z,56.25
2022-08-28T02:24:30.041Z,56.46
2022-08-28T02:26:33.464Z,56.65
2022-08-28T02:28:36.471Z,56.49
2022-08-28T02:30:40.325Z,56.42
2022-08-28T02:32:42.345Z,56.68
2022-08-28T02:34:46.572Z,56.59
2022-08-28T02:36:49.288Z,56.81
2022-08-28T02:38:56.966Z,56.92
2022-08-28T02:40:59.714Z,57.30
2022-08-28T02:43:06.283Z,57.12
2022-08-28T02:45:19.425Z,57.17
2022-08-28T02:47:21.420Z,57.01
2022-08-28T02:49:24.155Z,56.75
2022-08-28T02:51:30.929Z,56.89
2022-08-28T02:53:33.250Z,57.25
2022-08-28T02:55:35.242Z,57.27
2022-08-28T02:57:37.515Z,57.08
2022-08-28T02:59:40.166Z,57.29
2022-08-28T03:01:42.157Z,57.52
2022-08-28T03:03:44.428Z,57.72
2022-08-28T03:05:46.939Z,57.54
2022-08-28T03:07:49.994Z,57.61
2022-08-28T03:09:52.305Z,57.74
2022-08-28T03:11:54.604Z,57.73
2022-08-28T03:13:56.738Z,57.84
2022-08-28T03:15:58.909Z,58.00
2022-08-28T03:18:00.857Z,57.85
2022-08-28T03:20:08.193Z,58.02
2022-08-28T03:22:10.127Z,57.93
2022-08-28T03:24:11.964Z,58.12
2022-08-28T03:26:20.791Z,57.93
2022-08-28T03:28:22.880Z,58.09
2022-08-28T03:30:25.375Z,58.13
2022-08-28T03:32:29.336Z,58.08
2022-08-28T03:34:31.293Z,58.32
2022-08-28T03:36:33.527Z,58.47
2022-08-28T03:38:35.843Z,58.59
2022-08-28T03:40:44.318Z,58.58
2022-08-28T03:42:53.547Z,58.71
2022-08-28T03:44:55.929Z,58.71
2022-08-28T03:46:57.763Z,58.73
2022-08-28T03:49:01.618Z,58.97
2022-08-28T03:51:12.301Z,58.54
2022-08-28T03:53:14.170Z,58.83
2022-08-28T03:55:16.923Z,58.64
2022-08-28T03:57:21.111Z,58.66
2022-08-28T03:59:32.006Z,58.85
2022-08-28T04:01:38.325Z,58.78
2022-08-28T04:03:40.417Z,58.92
2022-08-28T04:05:44.057Z,59.25
2022-08-28T04:07:46.061Z,59.22
2022-08-28T04:09:47.923Z,59.13
2022-08-28T04:11:49.808Z,59.04
2022-08-28T04:13:51.776Z,58.91
2022-08-28T04:16:06.462Z,59.07
2022-08-28T04:18:09.811Z,59.33
2022-08-28T04:20:11.860Z,59.01
2022-08-28T04:22:13.690Z,59.39
2022-08-28T04:24:15.672Z,59.28
2022-08-28T04:26:21.201Z,59.67
2022-08-28T04:28:24.067Z,59.44
2022-08-28T04:30:25.929Z,59.55
2022-08-28T04:32:27.904Z,59.62
2022-08-28T04:34:31.049Z,59.71
2022-08-28T04:36:36.042Z,59.77
2022-08-28T04:38:43.539Z,59.45
2022-08-28T04:40:46.595Z,59.42
2022-08-28T04:42:50.972Z,59.69
2022-08-28T04:44:58.167Z,59.52
2022-08-28T04:47:00.406Z,59.92
2022-08-28T04:49:04.688Z,59.77
2022-08-28T04:51:09.147Z,59.91
2022-08-28T04:53:11.763Z,60.01
2022-08-28T04:55:14.571Z,59.68
2022-08-28T04:57:20.101Z,59.84
2022-08-28T04:59:31.463Z,60.14
2022-08-28T05:01:33.652Z,60.19
2022-08-28T05:03:35.777Z,60.18
2022-08-28T05:05:46.253Z,60.22
2022-08-28T05:07:48.207Z,60.12
2022-08-28T05:09:53.971Z,60.38
2022-08-28T05:11:55.837Z,60.47
2022-08-28T05:13:57.751Z,60.62
2022-08-28T05:16:02.922Z,60.65
2022-08-28T05:18:05.108Z,60.49
2022-08-28T05:20:07.371Z,60.55
2022-08-28T05:22:13.720Z,60.51
2022-08-28T05:24:17.306Z,60.43
2022-08-28T05:26:20.092Z,60.31
2022-08-28T05:28:24.580Z,60.88
2022-08-28T05:30:27.309Z,60.48
2022-08-28T05:32:29.044Z,60.30
2022-08-28T05:34:31.487Z,60.30
2022-08-28T05:36:35.940Z,60.69
2022-08-28T05:38:38.750Z,60.35
2022-08-28T05:40:46.419Z,60.73
2022-08-28T05:42:52.260Z,60.44
2022-08-28T05:44:54.765Z,60.22
2022-08-28T05:46:56.743Z,60.53
2022-08-28T05:49:00.468Z,60.27
2022-08-28T05:51:14.997Z,60.56
2022-08-28T05:53:18.190Z,60.52
2022-08-28T05:55:19.880Z,60.61
2022-08-28T05:57:21.572Z,60.47
2022-08-28T05:59:27.583Z,60.52
2022-08-28T06:01:32.222Z,60.45
2022-08-28T06:03:35.122Z,60.24
2022-08-28T06:05:38.179Z,60.37
2022-08-28T06:07:41.150Z,60.56
2022-08-28T06:09:43.556Z,60.43
2022-08-28T06:11:46.312Z,59.98
2022-08-28T06:13:48.494Z,60.41
2022-08-28T06:15:50.693Z,60.62
2022-08-28T06:17:54.282Z,60.24
2022-08-28T06:19:56.143Z,60.56
2022-08-28T06:22:00.141Z,60.50
2022-08-28T06:24:03.771Z,60.21
2022-08-28T06:26:07.060Z,60.40
2022-08-28T06:28:08.793Z,60.11
2022-08-28T06:30:11.523Z,60.45
2022-08-28T06:32:13.370Z,60.01
2022-08-28T06:34:15.233Z,60.13
2022-08-28T06:36:17.095Z,59.89
2022-08-28T06:38:21.045Z,59.94
2022-08-28T06:40:23.159Z,59.82
2022-08-28T06:42:25.298Z,59.95
2022-08-28T06:44:27.149Z,59.88
2022-08-28T06:46:30.546Z,59.81
2022-08-28T06:48:32.390Z,59.51
2022-08-28T06:50:34.718Z,59.35
2022-08-28T06:52:36.405Z,59.46
2022-08-28T06:54:40.461Z,59.10
2022-08-28T06:56:59.883Z,59.30
2022-08-28T06:59:02.689Z,59.07
2022-08-28T07:01:10.805Z,58.91
2022-08-28T07:03:14.227Z,58.86
2022-08-28T07:05:19.415Z,58.81
2022-08-28T07:07:31.854Z,58.91
2022-08-28T07:09:34.205Z,59.07
2022-08-28T07:11:37.170Z,58.66
2022-08-28T07:13:38.865Z,58.49
2022-08-28T07:15:41.865Z,58.28
2022-08-28T07:17:44.321Z,58.44
2022-08-28T07:19:46.600Z,58.29
2022-08-28T07:21:48.296Z,58.28
2022-08-28T07:23:50.417Z,58.11
2022-08-28T07:25:52.529Z,57.84
2022-08-28T07:27:54.389Z,58.04
2022-08-28T07:29:56.065Z,57.95
2022-08-28T07:31:59.080Z,57.96
2022-08-28T07:34:00.885Z,57.96
2022-08-28T07:36:03.468Z,58.02
2022-08-28T07:38:05.333Z,57.94
2022-08-28T07:40:08.680Z,57.40
2022-08-28T07:42:35.765Z,57.35
2022-08-28T07:44:50.429Z,57.09
2022-08-28T07:46:57.600Z,57.33
2022-08-28T07:48:59.582Z,57.34
2022-08-28T07:51:05.738Z,57.34
2022-08-28T07:53:08.207Z,57.33
2022-08-28T07:55:10.087Z,57.51
2022-08-28T07:57:11.782Z,57.28
2022-08-28T07:59:16.972Z,57.51
2022-08-28T08:01:19.724Z,57.47
2022-08-28T08:03:22.962Z,57.37
2022-08-28T08:05:25.735Z,57.10
2022-08-28T08:07:27.462Z,57.07
2022-08-28T08:09:29.194Z,57.26
2022-08-28T08:11:32.497Z,57.30
2022-08-28T08:13:35.248Z,56.84
2022-08-28T08:15:37.142Z,56.92
2022-08-28T08:17:39.412Z,56.67
2022-08-28T08:19:41.157Z,56.77
2022-08-28T08:21:45.105Z,56.55
2022-08-28T08:23:47.842Z,56.47
2022-08-28T08:26:00.962Z,56.24
2022-08-28T08:28:04.001Z,56.12
2022-08-28T08:30:06.215Z,55.44
2022-08-28T08:32:10.647Z,55.63
2022-08-28T08:34:12.362Z,55.28
2022-08-28T08:36:15.730Z,55.13
2022-08-28T08:38:17.411Z,54.99
2022-08-28T08:40:20.702Z,54.85
2022-08-28T08:42:30.140Z,54.63
2022-08-28T08:44:41.972Z,54.25
2022-08-28T08:46:53.780Z,53.93
2022-08-28T08:49:10.473Z,53.63
2022-08-28T08:51:25.381Z,53.33
2022-08-28T08:53:36.018Z,53.33
2022-08-28T08:55:50.517Z,53.17
2022-08-28T08:58:16.551Z,52.67
2022-08-28T09:00:20.412Z,52.70
2022-08-28T09:02:31.458Z,52.03
2022-08-28T09:04:45.073Z,51.84
2022-08-28T09:07:00.230Z,51.59
2022-08-28T09:09:07.211Z,51.53
2022-08-28T09:11:26.994Z,51.24
2022-08-28T09:13:52.940Z,51.08
2022-08-28T09:16:05.583Z,50.81
2022-08-28T09:18:25.961Z,50.48
2022-08-28T09:20:33.215Z,50.95
2022-08-28T09:22:37.291Z,50.69
2022-08-28T09:24:41.336Z,50.11
2022-08-28T09:26:43.279Z,49.97
2022-08-28T09:28:58.265Z,49.61
2022-08-28T09:31:39.419Z,49.31
2022-08-28T09:33:51.498Z,49.56
2022-08-28T09:35:53.185Z,48.91
2022-08-28T09:37:55.967Z,49.10
2022-08-28T09:40:17.224Z,48.65
2022-08-28T09:42:42.414Z,47.83
2022-08-28T09:45:09.247Z,47.89
2022-08-28T09:47:46.126Z,47.96
2022-08-28T09:49:48.397Z,47.32
2022-08-28T09:51:50.765Z,47.55
2022-08-28T09:53:52.421Z,47.59
2022-08-28T09:56:03.294Z,47.48
2022-08-28T09:58:06.439Z,47.39
2022-08-28T10:00:08.905Z,47.07
2022-08-28T10:02:46.625Z,46.36
2022-08-28T10:05:10.685Z,45.75
2022-08-28T10:07:40.426Z,45.17
2022-08-28T10:10:22.844Z,45.27
2022-08-28T10:12:52.534Z,44.41
2022-08-28T10:15:00.105Z,44.75
2022-08-28T10:17:25.546Z,44.33
2022-08-28T10:20:03.017Z,43.50
2022-08-28T10:22:19.355Z,43.71
2022-08-28T10:24:31.320Z,43.74
2022-08-28T10:27:00.533Z,43.74
2022-08-28T10:29:39.487Z,44.03
2022-08-28T10:31:49.170Z,43.82
2022-08-28T10:34:15.630Z,43.77
2022-08-28T10:36:34.044Z,43.89
2022-08-28T10:38:40.404Z,43.71
2022-08-28T10:40:49.928Z,43.59
2022-08-28T10:43:00.645Z,43.41
2022-08-28T10:45:08.722Z,42.92
2022-08-28T10:47:13.107Z,42.75
2022-08-28T10:49:34.818Z,42.68
2022-08-28T10:51:44.953Z,42.66
2022-08-28T10:53:56.726Z,42.38
2022-08-28T10:56:03.111Z,42.11
2022-08-28T10:58:24.364Z,41.51
2022-08-28T11:00:33.059Z,41.63
2022-08-28T11:02:37.720Z,41.48
2022-08-28T11:04:40.185Z,41.53
2022-08-28T11:06:48.247Z,41.07
2022-08-28T11:08:53.847Z,41.41
2022-08-28T11:10:58.512Z,41.10
2022-08-28T11:13:01.558Z,41.10
2022-08-28T11:15:40.928Z,41.36
2022-08-28T11:17:43.491Z,41.67
2022-08-28T11:19:53.584Z,41.90
2022-08-28T11:22:15.486Z,41.83
2022-08-28T11:24:30.498Z,41.24
2022-08-28T11:26:38.443Z,41.46
2022-08-28T11:28:47.498Z,40.80
2022-08-28T11:31:10.208Z,40.06
2022-08-28T11:33:44.303Z,40.38
2022-08-28T11:35:49.678Z,40.13
2022-08-28T11:37:54.996Z,39.87
2022-08-28T11:40:33.892Z,39.76
2022-08-28T11:42:37.708Z,39.56
2022-08-28T11:44:42.554Z,39.85
2022-08-28T11:46:52.185Z,39.56
2022-08-28T11:48:57.277Z,39.76
2022-08-28T11:51:07.061Z,40.02
2022-08-28T11:53:22.846Z,40.03
2022-08-28T11:55:31.585Z,39.89
2022-08-28T12:00:23.882Z,40.21
2022-08-28T12:02:40.558Z,40.38
2022-08-28T12:04:43.271Z,40.17
2022-08-28T12:06:53.409Z,40.31
2022-08-28T12:08:58.620Z,39.82
2022-08-28T12:11:04.304Z,39.85
2022-08-28T12:13:07.867Z,39.78
2022-08-28T12:15:10.709Z,39.20
2022-08-28T12:17:15.196Z,39.54
2022-08-28T12:19:59.313Z,39.55
2022-08-28T12:22:13.662Z,39.37
2022-08-28T12:24:22.679Z,38.29
2022-08-28T12:26:30.120Z,37.84
2022-08-28T12:29:14.494Z,37.83
2022-08-28T12:31:58.976Z,38.08
2022-08-28T12:34:10.707Z,37.01
2022-08-28T12:36:16.849Z,36.84
2022-08-28T12:38:22.057Z,36.60
2022-08-28T12:40:50.281Z,36.82
2022-08-28T12:42:58.739Z,36.39
2022-08-28T12:45:07.565Z,36.57
2022-08-28T12:47:16.528Z,36.41
2022-08-28T12:49:37.080Z,36.24
2022-08-28T12:51:38.800Z,36.07
2022-08-28T12:53:46.996Z,35.38
2022-08-28T12:55:48.809Z,35.50
2022-08-28T12:57:51.353Z,35.65
2022-08-28T12:59:55.590Z,35.03
2022-08-28T13:02:03.749Z,34.54
2022-08-28T13:04:27.702Z,34.56
2022-08-28T13:06:38.614Z,34.63
2022-08-28T13:08:40.748Z,34.52
2022-08-28T13:10:49.493Z,33.89
2022-08-28T13:13:07.151Z,34.19
2022-08-28T13:15:12.476Z,33.85
2022-08-28T13:17:35.575Z,34.04
2022-08-28T13:19:38.435Z,33.60
2022-08-28T13:21:51.946Z,33.75
2022-08-28T13:23:58.403Z,33.98
2022-08-28T13:26:06.788Z,34.19
2022-08-28T13:28:17.796Z,34.93
2022-08-28T13:30:26.565Z,34.96
2022-08-28T13:32:30.786Z,34.60
2022-08-28T13:34:35.814Z,35.11
2022-08-28T13:36:49.445Z,34.68
2022-08-28T13:38:51.144Z,34.68
2022-08-28T13:41:03.575Z,35.75
2022-08-28T13:43:10.161Z,35.95
2022-08-28T13:45:13.363Z,35.86
2022-08-28T13:47:15.785Z,36.05
2022-08-28T13:49:29.225Z,36.43
2022-08-28T13:51:30.950Z,36.73
2022-08-28T13:53:33.866Z,37.13
2022-08-28T13:55:35.639Z,37.25
2022-08-28T13:57:37.360Z,36.93
2022-08-28T13:59:39.134Z,36.77
2022-08-28T14:01:59.801Z,36.87
2022-08-28T14:04:01.392Z,36.54
2022-08-28T14:06:06.259Z,36.31
2022-08-28T14:08:07.983Z,36.65
2022-08-28T14:10:10.019Z,36.27
2022-08-28T14:12:12.428Z,36.06
2022-08-28T14:14:14.335Z,35.44
2022-08-28T14:16:16.907Z,35.33
2022-08-28T14:18:18.719Z,35.66
2022-08-28T14:20:21.698Z,35.61
2022-08-28T14:22:23.671Z,35.38
2022-08-28T14:24:26.213Z,35.48
2022-08-28T14:26:29.708Z,35.47
2022-08-28T14:28:31.506Z,34.85
2022-08-28T14:30:33.434Z,34.74
2022-08-28T14:32:35.629Z,34.79
2022-08-28T14:34:38.778Z,34.19
2022-08-28T14:36:41.838Z,33.49
2022-08-28T14:38:43.641Z,33.76
2022-08-28T14:40:45.687Z,33.59
2022-08-28T14:42:47.693Z,34.09
2022-08-28T14:44:49.440Z,33.09
2022-08-28T14:46:52.705Z,33.60
2022-08-28T14:49:02.074Z,33.31
2022-08-28T14:51:04.715Z,34.23
2022-08-28T14:53:06.490Z,33.69
2022-08-28T14:55:11.157Z,33.63
2022-08-28T14:57:13.729Z,33.96
2022-08-28T14:59:30.294Z,33.84
2022-08-28T15:01:40.420Z,33.63
2022-08-28T15:03:42.725Z,33.31
2022-08-28T15:05:45.344Z,33.27
2022-08-28T15:07:47.064Z,33.06
2022-08-28T15:09:48.786Z,33.30
2022-08-28T15:11:50.492Z,33.26
2022-08-28T15:13:53.058Z,33.42
2022-08-28T15:16:02.894Z,33.43
2022-08-28T15:18:05.378Z,34.52
2022-08-28T15:20:07.650Z,34.55
2022-08-28T15:22:09.318Z,34.90
2022-08-28T15:24:13.479Z,34.91
2022-08-28T15:26:16.120Z,35.26
2022-08-28T15:28:17.992Z,35.60
2022-08-28T15:30:19.746Z,35.66
2022-08-28T15:32:21.430Z,35.60
2022-08-28T15:34:25.165Z,35.94
2022-08-28T15:36:26.847Z,36.32
2022-08-28T15:38:28.647Z,36.48
2022-08-28T15:40:49.242Z,36.75
2022-08-28T15:42:50.783Z,36.89
2022-08-28T15:44:52.466Z,37.08
2022-08-28T15:46:57.695Z,37.28
2022-08-28T15:49:04.601Z,37.66
2022-08-28T15:51:09.519Z,37.81
2022-08-28T15:53:12.484Z,37.03
2022-08-28T15:55:14.289Z,37.21
2022-08-28T15:57:16.314Z,37.33
2022-08-28T15:59:38.101Z,37.54
2022-08-28T16:01:51.466Z,37.60
2022-08-28T16:03:53.504Z,37.68
2022-08-28T16:05:55.295Z,37.65
2022-08-28T16:07:56.998Z,38.10
2022-08-28T16:09:58.849Z,38.00
2022-08-28T16:12:00.556Z,37.97
2022-08-28T16:14:04.632Z,37.83
2022-08-28T16:16:07.458Z,37.79
2022-08-28T16:18:09.602Z,38.22
2022-08-28T16:20:12.830Z,38.25
2022-08-28T16:22:18.004Z,38.24
2022-08-28T16:24:19.778Z,38.24
2022-08-28T16:26:21.593Z,38.05
2022-08-28T16:28:23.337Z,37.66
2022-08-28T16:30:25.091Z,37.65
2022-08-28T16:32:27.021Z,37.85
2022-08-28T16:34:31.516Z,37.93
2022-08-28T16:36:33.622Z,38.00
2022-08-28T16:38:44.112Z,38.26
2022-08-28T16:40:46.774Z,38.18
2022-08-28T16:42:51.802Z,38.50
2022-08-28T16:44:57.692Z,38.22
2022-08-28T16:46:59.682Z,38.40
2022-08-28T16:49:01.702Z,38.57
2022-08-28T16:51:04.040Z,38.95
2022-08-28T16:53:07.146Z,39.12
2022-08-28T16:55:11.160Z,39.33
2022-08-28T16:57:12.931Z,39.22
2022-08-28T16:59:29.780Z,39.64
2022-08-28T17:01:31.740Z,39.98
2022-08-28T17:03:33.590Z,39.75
2022-08-28T17:05:35.292Z,40.10
2022-08-28T17:07:40.084Z,40.40
2022-08-28T17:09:41.888Z,40.50
2022-08-28T17:11:43.632Z,40.93
2022-08-28T17:13:45.778Z,41.05
2022-08-28T17:15:47.608Z,41.14
2022-08-28T17:17:49.498Z,41.38
2022-08-28T17:19:51.245Z,41.48
2022-08-28T17:22:11.410Z,41.46
2022-08-28T17:24:13.639Z,41.80
2022-08-28T17:26:16.122Z,41.49
2022-08-28T17:28:18.047Z,41.51
2022-08-28T17:30:20.765Z,41.60
2022-08-28T17:32:22.593Z,41.52
2022-08-28T17:34:29.486Z,41.81
2022-08-28T17:36:33.458Z,42.09
2022-08-28T17:38:36.439Z,42.07
2022-08-28T17:40:39.395Z,42.14
2022-08-28T17:42:41.704Z,42.13
2022-08-28T17:44:43.663Z,42.35
2022-08-28T17:46:45.957Z,42.23
2022-08-28T17:48:54.433Z,42.60
2022-08-28T17:50:58.660Z,42.88
2022-08-28T17:53:00.970Z,43.17
2022-08-28T17:55:03.686Z,42.52
2022-08-28T17:57:05.673Z,42.51
2022-08-28T17:59:07.842Z,42.82
2022-08-28T18:01:09.618Z,43.01
2022-08-28T18:03:11.871Z,43.72
2022-08-28T18:05:14.638Z,43.37
2022-08-28T18:07:16.725Z,43.50
2022-08-28T18:09:27.584Z,43.28
2022-08-28T18:11:29.568Z,43.12
2022-08-28T18:13:32.131Z,42.93
2022-08-28T18:15:34.513Z,43.09
2022-08-28T18:17:39.732Z,43.43
2022-08-28T18:19:42.136Z,43.40
2022-08-28T18:21:44.832Z,43.61
2022-08-28T18:23:46.811Z,43.81
2022-08-28T18:25:50.920Z,43.86
2022-08-28T18:27:52.945Z,44.18
2022-08-28T18:29:55.891Z,44.48
2022-08-28T18:31:57.686Z,44.50
2022-08-28T18:33:59.862Z,44.55
2022-08-28T18:36:02.201Z,44.50
2022-08-28T18:38:05.089Z,44.40
2022-08-28T18:40:07.569Z,44.06
2022-08-28T18:42:09.882Z,43.92
2022-08-28T18:44:15.520Z,43.54
2022-08-28T18:46:17.798Z,43.85
2022-08-28T18:48:19.963Z,44.15
2022-08-28T18:50:22.323Z,43.92
2022-08-28T18:52:24.220Z,43.88
2022-08-28T18:54:26.290Z,44.27
2022-08-28T18:56:32.495Z,44.45
2022-08-28T18:58:35.702Z,44.32
2022-08-28T19:00:38.600Z,44.32
2022-08-28T19:02:41.775Z,44.51
2022-08-28T19:04:45.065Z,45.01
2022-08-28T19:06:47.072Z,45.53
2022-08-28T19:08:49.131Z,45.67
2022-08-28T19:10:51.874Z,45.60
2022-08-28T19:12:53.968Z,45.95
2022-08-28T19:14:59.428Z,45.87
2022-08-28T19:17:02.035Z,46.13
2022-08-28T19:19:04.385Z,46.42
2022-08-28T19:21:12.191Z,46.36
2022-08-28T19:23:18.425Z,46.43
2022-08-28T19:25:28.844Z,46.22
2022-08-28T19:27:32.902Z,46.53
2022-08-28T19:29:36.137Z,46.31
2022-08-28T19:31:38.959Z,46.42
2022-08-28T19:33:41.084Z,46.42
2022-08-28T19:35:43.447Z,46.56
2022-08-28T19:37:45.733Z,47.22
2022-08-28T19:39:56.438Z,47.16
2022-08-28T19:41:59.846Z,47.05
2022-08-28T19:44:03.667Z,47.31
2022-08-28T19:46:14.053Z,47.37
2022-08-28T19:48:21.866Z,47.52
2022-08-28T19:50:24.145Z,47.64
2022-08-28T19:52:26.200Z,47.69
2022-08-28T19:54:28.135Z,48.13
2022-08-28T19:56:32.559Z,48.21
2022-08-28T19:58:36.242Z,48.20
2022-08-28T20:00:38.153Z,48.56
2022-08-28T20:02:40.482Z,48.55
2022-08-28T20:04:42.579Z,48.50
2022-08-28T20:06:46.144Z,48.53
2022-08-28T20:08:48.028Z,48.51
2022-08-28T20:10:50.646Z,48.54
2022-08-28T20:12:53.716Z,48.53
2022-08-28T20:14:59.027Z,48.87
2022-08-28T20:17:05.424Z,48.97
2022-08-28T20:19:10.746Z,48.99
2022-08-28T20:21:13.211Z,49.21
2022-08-28T20:23:19.696Z,49.21
2022-08-28T20:25:22.163Z,49.25
2022-08-28T20:27:24.263Z,49.62
2022-08-28T20:29:34.687Z,49.27
2022-08-28T20:31:43.007Z,49.51
2022-08-28T20:33:46.704Z,49.54
2022-08-28T20:35:48.706Z,49.53
2022-08-28T20:37:50.614Z,49.81
2022-08-28T20:39:57.750Z,49.62
2022-08-28T20:41:59.846Z,49.81
2022-08-28T20:44:05.082Z,50.10
2022-08-28T20:46:08.040Z,50.49
2022-08-28T20:48:10.066Z,50.18
2022-08-28T20:50:14.236Z,50.13
2022-08-28T20:52:16.500Z,50.08
2022-08-28T20:54:21.097Z,50.34
2022-08-28T20:56:23.441Z,49.97
2022-08-28T20:58:27.127Z,50.31
2022-08-28T21:00:29.291Z,50.15
2022-08-28T21:02:31.773Z,50.32
2022-08-28T21:04:39.245Z,50.46
2022-08-28T21:06:41.657Z,50.65
2022-08-28T21:08:43.621Z,50.66
2022-08-28T21:10:46.049Z,50.41
2022-08-28T21:12:48.128Z,50.60
2022-08-28T21:14:51.459Z,50.67
2022-08-28T21:16:54.420Z,50.69
2022-08-28T21:19:15.118Z,50.91
2022-08-28T21:21:18.355Z,51.09
2022-08-28T21:23:22.334Z,50.87
2022-08-28T21:25:25.240Z,50.65
2022-08-28T21:27:27.769Z,50.85
2022-08-28T21:29:34.933Z,50.70
2022-08-28T21:31:37.275Z,50.70
2022-08-28T21:33:41.549Z,50.86
2022-08-28T21:35:44.136Z,50.79
2022-08-28T21:37:46.340Z,50.54
2022-08-28T21:39:48.466Z,50.75
2022-08-28T21:41:51.465Z,50.86
2022-08-28T21:43:53.550Z,51.11
2022-08-28T21:46:03.433Z,51.14
2022-08-28T21:48:06.251Z,50.86
2022-08-28T21:50:11.075Z,51.29
2022-08-28T21:52:13.015Z,51.13
2022-08-28T21:54:15.146Z,51.30
2022-08-28T21:56:25.146Z,51.37
2022-08-28T21:58:27.229Z,51.37
2022-08-28T22:00:29.252Z,51.56
2022-08-28T22:02:31.278Z,51.26
2022-08-28T22:04:33.614Z,51.50
2022-08-28T22:06:35.901Z,51.79
2022-08-28T22:08:39.966Z,51.66
2022-08-28T22:10:43.983Z,51.90
2022-08-28T22:12:45.956Z,51.75
2022-08-28T22:14:48.456Z,52.09
2022-08-28T22:16:50.857Z,51.87
2022-08-28T22:18:53.239Z,51.91
2022-08-28T22:21:13.910Z,51.97
2022-08-28T22:23:17.889Z,52.23
2022-08-28T22:25:20.034Z,52.21
2022-08-28T22:27:22.581Z,52.25
2022-08-28T22:29:33.265Z,52.75
2022-08-28T22:31:35.473Z,52.29
2022-08-28T22:33:39.275Z,52.88
2022-08-28T22:35:41.265Z,52.76
2022-08-28T22:37:43.370Z,53.02
2022-08-28T22:39:45.455Z,53.06
2022-08-28T22:41:47.669Z,52.97
2022-08-28T22:43:50.918Z,52.97
2022-08-28T22:45:52.919Z,53.19
2022-08-28T22:47:54.995Z,53.11
2022-08-28T22:49:58.602Z,53.04
2022-08-28T22:52:00.537Z,53.20
2022-08-28T22:54:02.645Z,53.21
2022-08-28T22:56:04.935Z,53.35
2022-08-28T22:58:07.672Z,53.42
2022-08-28T23:00:13.881Z,53.50
2022-08-28T23:02:18.481Z,53.48
2022-08-28T23:04:20.513Z,53.53
2022-08-28T23:06:27.940Z,53.81
2022-08-28T23:08:33.874Z,53.69
2022-08-28T23:10:57.492Z,53.65
2022-08-28T23:12:58.480Z,53.73
2022-08-28T23:15:02.115Z,53.88
2022-08-28T23:17:04.172Z,53.66
2022-08-28T23:19:09.132Z,53.86
2022-08-28T23:21:11.690Z,53.87
2022-08-28T23:23:14.208Z,54.16
2022-08-28T23:25:19.460Z,53.94
2022-08-28T23:27:37.084Z,53.92
2022-08-28T23:29:39.549Z,53.94
2022-08-28T23:31:41.642Z,53.81
2022-08-28T23:33:43.927Z,53.78
2022-08-28T23:35:45.932Z,54.29
2022-08-28T23:37:51.851Z,53.77
2022-08-28T23:39:54.597Z,54.35
2022-08-28T23:41:56.752Z,54.06
2022-08-28T23:43:58.901Z,54.17
2022-08-28T23:46:01.197Z,54.33
2022-08-28T23:48:04.605Z,54.21
2022-08-28T23:50:09.631Z,54.35
2022-08-28T23:52:12.407Z,54.23
2022-08-28T23:54:14.863Z,54.33
2022-08-28T23:56:17.650Z,54.36
2022-08-28T23:58:20.750Z,54.36
